sensor_id;sensor_type;location;lat;lon;timestamp;P1;durP1;ratioP1;P2;durP2;ratioP2
37495;SDS011;23346;52.088;4.746;2023-04-03T00:01:15;1.70;;;1.57;;
37495;SDS011;23346;52.088;4.746;2023-04-03T00:03:41;1.90;;;1.53;;
37495;SDS011;23346;52.088;4.746;2023-04-03T00:06:08;1.50;;;1.40;;
37495;SDS011;23346;52.088;4.746;2023-04-03T00:08:35;3.47;;;1.40;;
37495;SDS011;23346;52.088;4.746;2023-04-03T00:11:02;2.00;;;1.57;;
37495;SDS011;23346;52.088;4.746;2023-04-03T00:13:28;9.50;;;2.43;;
37495;SDS011;23346;52.088;4.746;2023-04-03T00:15:54;1.63;;;1.53;;
37495;SDS011;23346;52.088;4.746;2023-04-03T00:18:20;4.27;;;1.60;;
37495;SDS011;23346;52.088;4.746;2023-04-03T00:20:46;6.53;;;1.77;;
37495;SDS011;23346;52.088;4.746;2023-04-03T00:23:12;2.70;;;1.70;;
37495;SDS011;23346;52.088;4.746;2023-04-03T00:25:38;5.17;;;1.70;;
37495;SDS011;23346;52.088;4.746;2023-04-03T00:28:04;4.40;;;1.50;;
37495;SDS011;23346;52.088;4.746;2023-04-03T00:30:30;3.40;;;1.97;;
37495;SDS011;23346;52.088;4.746;2023-04-03T00:32:56;5.50;;;1.77;;
37495;SDS011;23346;52.088;4.746;2023-04-03T00:35:23;2.43;;;2.13;;
37495;SDS011;23346;52.088;4.746;2023-04-03T00:37:52;2.17;;;1.70;;
37495;SDS011;23346;52.088;4.746;2023-04-03T00:40:18;1.97;;;1.80;;
37495;SDS011;23346;52.088;4.746;2023-04-03T00:42:45;2.27;;;1.40;;
37495;SDS011;23346;52.088;4.746;2023-04-03T00:47:41;2.03;;;1.70;;
37495;SDS011;23346;52.088;4.746;2023-04-03T00:50:07;1.70;;;1.50;;
37495;SDS011;23346;52.088;4.746;2023-04-03T00:52:33;5.87;;;1.67;;
37495;SDS011;23346;52.088;4.746;2023-04-03T00:55:00;1.37;;;1.30;;
37495;SDS011;23346;52.088;4.746;2023-04-03T00:57:27;2.47;;;1.67;;
37495;SDS011;23346;52.088;4.746;2023-04-03T00:59:55;3.10;;;1.93;;
37495;SDS011;23346;52.088;4.746;2023-04-03T01:02:23;3.80;;;1.70;;
37495;SDS011;23346;52.088;4.746;2023-04-03T01:04:49;7.10;;;2.03;;
37495;SDS011;23346;52.088;4.746;2023-04-03T01:07:16;2.53;;;2.03;;
37495;SDS011;23346;52.088;4.746;2023-04-03T01:09:43;2.87;;;1.60;;
37495;SDS011;23346;52.088;4.746;2023-04-03T01:12:13;3.30;;;1.57;;
37495;SDS011;23346;52.088;4.746;2023-04-03T01:14:40;2.33;;;2.00;;
37495;SDS011;23346;52.088;4.746;2023-04-03T01:20:00;3.50;;;1.90;;
37495;SDS011;23346;52.088;4.746;2023-04-03T01:22:30;1.90;;;1.50;;
37495;SDS011;23346;52.088;4.746;2023-04-03T01:25:00;1.67;;;1.57;;
37495;SDS011;23346;52.088;4.746;2023-04-03T01:27:26;4.20;;;1.90;;
37495;SDS011;23346;52.088;4.746;2023-04-03T01:29:52;2.33;;;2.00;;
37495;SDS011;23346;52.088;4.746;2023-04-03T01:32:18;5.63;;;1.83;;
37495;SDS011;23346;52.088;4.746;2023-04-03T01:34:44;2.30;;;1.60;;
37495;SDS011;23346;52.088;4.746;2023-04-03T01:37:10;2.10;;;1.70;;
37495;SDS011;23346;52.088;4.746;2023-04-03T01:39:36;1.97;;;1.60;;
37495;SDS011;23346;52.088;4.746;2023-04-03T01:42:02;3.93;;;1.70;;
37495;SDS011;23346;52.088;4.746;2023-04-03T01:44:29;3.63;;;1.87;;
37495;SDS011;23346;52.088;4.746;2023-04-03T01:46:55;4.30;;;1.33;;
37495;SDS011;23346;52.088;4.746;2023-04-03T01:49:21;1.60;;;1.50;;
37495;SDS011;23346;52.088;4.746;2023-04-03T01:51:47;1.83;;;1.73;;
37495;SDS011;23346;52.088;4.746;2023-04-03T01:54:13;2.53;;;1.87;;
37495;SDS011;23346;52.088;4.746;2023-04-03T01:56:39;4.63;;;2.17;;
37495;SDS011;23346;52.088;4.746;2023-04-03T01:59:05;3.90;;;2.27;;
37495;SDS011;23346;52.088;4.746;2023-04-03T02:01:31;1.80;;;1.60;;
37495;SDS011;23346;52.088;4.746;2023-04-03T02:03:58;2.93;;;2.10;;
37495;SDS011;23346;52.088;4.746;2023-04-03T02:06:24;2.60;;;1.90;;
37495;SDS011;23346;52.088;4.746;2023-04-03T02:08:50;1.53;;;1.43;;
37495;SDS011;23346;52.088;4.746;2023-04-03T02:11:16;5.37;;;2.07;;
37495;SDS011;23346;52.088;4.746;2023-04-03T02:13:42;1.53;;;1.40;;
37495;SDS011;23346;52.088;4.746;2023-04-03T02:16:09;2.40;;;1.90;;
37495;SDS011;23346;52.088;4.746;2023-04-03T02:18:35;1.73;;;1.23;;
37495;SDS011;23346;52.088;4.746;2023-04-03T02:21:01;4.27;;;1.90;;
37495;SDS011;23346;52.088;4.746;2023-04-03T02:23:27;4.30;;;1.80;;
37495;SDS011;23346;52.088;4.746;2023-04-03T02:26:01;2.40;;;1.50;;
37495;SDS011;23346;52.088;4.746;2023-04-03T02:28:27;2.87;;;1.93;;
37495;SDS011;23346;52.088;4.746;2023-04-03T02:30:53;3.50;;;1.87;;
37495;SDS011;23346;52.088;4.746;2023-04-03T02:33:19;5.33;;;1.83;;
37495;SDS011;23346;52.088;4.746;2023-04-03T02:35:45;4.03;;;2.13;;
37495;SDS011;23346;52.088;4.746;2023-04-03T02:38:17;4.33;;;1.60;;
37495;SDS011;23346;52.088;4.746;2023-04-03T02:40:44;2.33;;;1.87;;
37495;SDS011;23346;52.088;4.746;2023-04-03T02:43:09;3.40;;;2.10;;
37495;SDS011;23346;52.088;4.746;2023-04-03T02:45:36;2.07;;;1.60;;
37495;SDS011;23346;52.088;4.746;2023-04-03T02:48:02;2.77;;;1.93;;
37495;SDS011;23346;52.088;4.746;2023-04-03T02:50:28;2.47;;;1.70;;
37495;SDS011;23346;52.088;4.746;2023-04-03T02:52:54;3.70;;;2.00;;
37495;SDS011;23346;52.088;4.746;2023-04-03T02:55:20;2.33;;;1.83;;
37495;SDS011;23346;52.088;4.746;2023-04-03T02:57:46;3.47;;;1.80;;
37495;SDS011;23346;52.088;4.746;2023-04-03T03:00:12;2.17;;;2.07;;
37495;SDS011;23346;52.088;4.746;2023-04-03T03:02:38;3.53;;;1.63;;
37495;SDS011;23346;52.088;4.746;2023-04-03T03:05:04;2.77;;;2.47;;
37495;SDS011;23346;52.088;4.746;2023-04-03T03:07:30;4.23;;;2.20;;
37495;SDS011;23346;52.088;4.746;2023-04-03T03:09:56;3.97;;;2.00;;
37495;SDS011;23346;52.088;4.746;2023-04-03T03:12:22;2.70;;;2.07;;
37495;SDS011;23346;52.088;4.746;2023-04-03T03:14:49;2.47;;;2.00;;
37495;SDS011;23346;52.088;4.746;2023-04-03T03:17:15;1.90;;;1.80;;
37495;SDS011;23346;52.088;4.746;2023-04-03T03:19:41;2.10;;;2.00;;
37495;SDS011;23346;52.088;4.746;2023-04-03T03:22:07;1.83;;;1.70;;
37495;SDS011;23346;52.088;4.746;2023-04-03T03:24:33;2.80;;;2.03;;
37495;SDS011;23346;52.088;4.746;2023-04-03T03:26:59;2.50;;;2.30;;
37495;SDS011;23346;52.088;4.746;2023-04-03T03:29:25;2.43;;;1.63;;
37495;SDS011;23346;52.088;4.746;2023-04-03T03:31:51;2.93;;;2.00;;
37495;SDS011;23346;52.088;4.746;2023-04-03T03:34:17;4.30;;;2.50;;
37495;SDS011;23346;52.088;4.746;2023-04-03T03:36:43;3.43;;;1.90;;
37495;SDS011;23346;52.088;4.746;2023-04-03T03:39:09;4.03;;;2.00;;
37495;SDS011;23346;52.088;4.746;2023-04-03T03:41:35;2.00;;;1.83;;
37495;SDS011;23346;52.088;4.746;2023-04-03T03:44:01;3.53;;;1.97;;
37495;SDS011;23346;52.088;4.746;2023-04-03T03:46:27;3.10;;;2.30;;
37495;SDS011;23346;52.088;4.746;2023-04-03T03:48:53;3.23;;;2.00;;
37495;SDS011;23346;52.088;4.746;2023-04-03T03:51:19;5.27;;;1.80;;
37495;SDS011;23346;52.088;4.746;2023-04-03T03:53:45;2.23;;;2.00;;
37495;SDS011;23346;52.088;4.746;2023-04-03T03:56:11;5.27;;;2.07;;
37495;SDS011;23346;52.088;4.746;2023-04-03T03:58:37;2.03;;;1.90;;
37495;SDS011;23346;52.088;4.746;2023-04-03T04:01:04;2.93;;;2.03;;
37495;SDS011;23346;52.088;4.746;2023-04-03T04:03:33;2.07;;;1.93;;
37495;SDS011;23346;52.088;4.746;2023-04-03T04:05:59;3.73;;;2.57;;
37495;SDS011;23346;52.088;4.746;2023-04-03T04:08:25;2.53;;;1.53;;
37495;SDS011;23346;52.088;4.746;2023-04-03T04:10:51;2.33;;;2.13;;
37495;SDS011;23346;52.088;4.746;2023-04-03T04:13:17;2.93;;;1.77;;
37495;SDS011;23346;52.088;4.746;2023-04-03T04:15:43;2.30;;;1.53;;
37495;SDS011;23346;52.088;4.746;2023-04-03T04:18:09;2.37;;;2.17;;
37495;SDS011;23346;52.088;4.746;2023-04-03T04:20:35;2.43;;;2.20;;
37495;SDS011;23346;52.088;4.746;2023-04-03T04:23:01;5.63;;;2.80;;
37495;SDS011;23346;52.088;4.746;2023-04-03T04:25:27;4.30;;;1.80;;
37495;SDS011;23346;52.088;4.746;2023-04-03T04:27:53;4.03;;;2.03;;
37495;SDS011;23346;52.088;4.746;2023-04-03T04:30:19;5.90;;;1.53;;
37495;SDS011;23346;52.088;4.746;2023-04-03T04:32:45;2.57;;;2.37;;
37495;SDS011;23346;52.088;4.746;2023-04-03T04:35:10;5.13;;;2.30;;
37495;SDS011;23346;52.088;4.746;2023-04-03T04:37:37;13.23;;;1.70;;
37495;SDS011;23346;52.088;4.746;2023-04-03T04:40:03;2.77;;;1.90;;
37495;SDS011;23346;52.088;4.746;2023-04-03T04:42:29;2.20;;;1.70;;
37495;SDS011;23346;52.088;4.746;2023-04-03T04:44:55;6.00;;;2.17;;
37495;SDS011;23346;52.088;4.746;2023-04-03T04:47:21;2.23;;;2.03;;
37495;SDS011;23346;52.088;4.746;2023-04-03T04:49:47;3.80;;;2.30;;
37495;SDS011;23346;52.088;4.746;2023-04-03T04:52:13;2.60;;;2.40;;
37495;SDS011;23346;52.088;4.746;2023-04-03T04:54:39;2.63;;;2.10;;
37495;SDS011;23346;52.088;4.746;2023-04-03T04:57:05;2.53;;;2.33;;
37495;SDS011;23346;52.088;4.746;2023-04-03T04:59:31;2.57;;;2.07;;
37495;SDS011;23346;52.088;4.746;2023-04-03T05:01:57;3.00;;;1.90;;
37495;SDS011;23346;52.088;4.746;2023-04-03T05:04:23;2.37;;;2.17;;
37495;SDS011;23346;52.088;4.746;2023-04-03T05:06:49;4.30;;;2.53;;
37495;SDS011;23346;52.088;4.746;2023-04-03T05:09:15;2.33;;;2.00;;
37495;SDS011;23346;52.088;4.746;2023-04-03T05:11:41;3.03;;;2.13;;
37495;SDS011;23346;52.088;4.746;2023-04-03T05:14:07;4.90;;;1.97;;
37495;SDS011;23346;52.088;4.746;2023-04-03T05:16:33;2.67;;;2.47;;
37495;SDS011;23346;52.088;4.746;2023-04-03T05:19:00;4.80;;;2.10;;
37495;SDS011;23346;52.088;4.746;2023-04-03T05:21:26;4.10;;;2.00;;
37495;SDS011;23346;52.088;4.746;2023-04-03T05:23:56;8.97;;;2.27;;
37495;SDS011;23346;52.088;4.746;2023-04-03T05:26:22;3.07;;;2.53;;
37495;SDS011;23346;52.088;4.746;2023-04-03T05:28:48;4.77;;;1.80;;
37495;SDS011;23346;52.088;4.746;2023-04-03T05:31:14;2.47;;;2.20;;
37495;SDS011;23346;52.088;4.746;2023-04-03T05:33:40;2.43;;;2.23;;
37495;SDS011;23346;52.088;4.746;2023-04-03T05:36:06;2.13;;;1.83;;
37495;SDS011;23346;52.088;4.746;2023-04-03T05:38:32;2.23;;;2.03;;
37495;SDS011;23346;52.088;4.746;2023-04-03T05:40:58;1.60;;;1.50;;
37495;SDS011;23346;52.088;4.746;2023-04-03T05:43:24;6.53;;;2.40;;
37495;SDS011;23346;52.088;4.746;2023-04-03T05:45:50;1.70;;;1.60;;
37495;SDS011;23346;52.088;4.746;2023-04-03T05:48:19;2.97;;;2.07;;
37495;SDS011;23346;52.088;4.746;2023-04-03T05:50:45;4.13;;;1.87;;
37495;SDS011;23346;52.088;4.746;2023-04-03T05:53:19;3.90;;;2.20;;
37495;SDS011;23346;52.088;4.746;2023-04-03T05:55:46;7.07;;;2.30;;
37495;SDS011;23346;52.088;4.746;2023-04-03T05:58:12;8.93;;;2.57;;
37495;SDS011;23346;52.088;4.746;2023-04-03T06:00:38;4.53;;;2.33;;
37495;SDS011;23346;52.088;4.746;2023-04-03T06:03:05;3.20;;;2.43;;
37495;SDS011;23346;52.088;4.746;2023-04-03T06:05:31;4.30;;;2.67;;
37495;SDS011;23346;52.088;4.746;2023-04-03T06:07:57;3.87;;;2.87;;
37495;SDS011;23346;52.088;4.746;2023-04-03T06:10:23;5.77;;;3.00;;
37495;SDS011;23346;52.088;4.746;2023-04-03T06:12:49;8.47;;;2.27;;
37495;SDS011;23346;52.088;4.746;2023-04-03T06:15:16;8.07;;;2.10;;
37495;SDS011;23346;52.088;4.746;2023-04-03T06:17:42;2.83;;;2.27;;
37495;SDS011;23346;52.088;4.746;2023-04-03T06:20:08;3.17;;;2.40;;
37495;SDS011;23346;52.088;4.746;2023-04-03T06:22:35;6.70;;;1.93;;
37495;SDS011;23346;52.088;4.746;2023-04-03T06:25:01;3.77;;;2.40;;
37495;SDS011;23346;52.088;4.746;2023-04-03T06:27:27;2.87;;;2.67;;
37495;SDS011;23346;52.088;4.746;2023-04-03T06:29:53;3.03;;;2.27;;
37495;SDS011;23346;52.088;4.746;2023-04-03T06:32:18;5.53;;;2.20;;
37495;SDS011;23346;52.088;4.746;2023-04-03T06:34:45;3.43;;;2.50;;
37495;SDS011;23346;52.088;4.746;2023-04-03T06:37:18;5.27;;;2.47;;
37495;SDS011;23346;52.088;4.746;2023-04-03T06:39:45;3.00;;;2.70;;
37495;SDS011;23346;52.088;4.746;2023-04-03T06:42:10;3.13;;;2.30;;
37495;SDS011;23346;52.088;4.746;2023-04-03T06:44:37;4.50;;;2.63;;
37495;SDS011;23346;52.088;4.746;2023-04-03T06:47:03;2.03;;;1.83;;
37495;SDS011;23346;52.088;4.746;2023-04-03T06:49:29;6.13;;;2.53;;
37495;SDS011;23346;52.088;4.746;2023-04-03T06:51:55;3.27;;;2.40;;
37495;SDS011;23346;52.088;4.746;2023-04-03T06:54:21;9.20;;;2.83;;
37495;SDS011;23346;52.088;4.746;2023-04-03T06:56:47;3.53;;;2.60;;
37495;SDS011;23346;52.088;4.746;2023-04-03T06:59:14;7.03;;;2.57;;
37495;SDS011;23346;52.088;4.746;2023-04-03T07:01:39;4.40;;;2.30;;
37495;SDS011;23346;52.088;4.746;2023-04-03T07:04:06;7.57;;;3.30;;
37495;SDS011;23346;52.088;4.746;2023-04-03T07:06:32;8.40;;;2.50;;
37495;SDS011;23346;52.088;4.746;2023-04-03T07:08:59;7.07;;;2.57;;
37495;SDS011;23346;52.088;4.746;2023-04-03T07:11:25;3.50;;;1.87;;
37495;SDS011;23346;52.088;4.746;2023-04-03T07:13:51;8.13;;;2.90;;
37495;SDS011;23346;52.088;4.746;2023-04-03T07:16:17;7.50;;;2.77;;
37495;SDS011;23346;52.088;4.746;2023-04-03T07:18:43;2.13;;;1.33;;
37495;SDS011;23346;52.088;4.746;2023-04-03T07:21:09;8.20;;;3.30;;
37495;SDS011;23346;52.088;4.746;2023-04-03T07:23:35;16.57;;;2.63;;
37495;SDS011;23346;52.088;4.746;2023-04-03T07:26:02;4.17;;;2.90;;
37495;SDS011;23346;52.088;4.746;2023-04-03T07:28:28;9.87;;;3.13;;
37495;SDS011;23346;52.088;4.746;2023-04-03T07:30:59;5.37;;;2.50;;
37495;SDS011;23346;52.088;4.746;2023-04-03T07:33:25;2.73;;;1.60;;
37495;SDS011;23346;52.088;4.746;2023-04-03T07:35:51;8.87;;;3.13;;
37495;SDS011;23346;52.088;4.746;2023-04-03T07:38:17;6.40;;;2.57;;
37495;SDS011;23346;52.088;4.746;2023-04-03T07:40:47;10.20;;;2.77;;
37495;SDS011;23346;52.088;4.746;2023-04-03T07:43:15;6.00;;;2.53;;
37495;SDS011;23346;52.088;4.746;2023-04-03T07:45:41;11.50;;;3.37;;
37495;SDS011;23346;52.088;4.746;2023-04-03T07:48:08;4.17;;;2.90;;
37495;SDS011;23346;52.088;4.746;2023-04-03T07:50:34;11.57;;;2.20;;
37495;SDS011;23346;52.088;4.746;2023-04-03T07:53:01;3.93;;;2.37;;
37495;SDS011;23346;52.088;4.746;2023-04-03T07:55:27;7.33;;;2.40;;
37495;SDS011;23346;52.088;4.746;2023-04-03T07:57:52;3.00;;;2.40;;
37495;SDS011;23346;52.088;4.746;2023-04-03T08:00:18;7.03;;;2.30;;
37495;SDS011;23346;52.088;4.746;2023-04-03T08:02:45;2.70;;;1.80;;
37495;SDS011;23346;52.088;4.746;2023-04-03T08:05:17;5.87;;;1.80;;
37495;SDS011;23346;52.088;4.746;2023-04-03T08:07:43;3.93;;;1.63;;
37495;SDS011;23346;52.088;4.746;2023-04-03T08:10:09;3.90;;;1.47;;
37495;SDS011;23346;52.088;4.746;2023-04-03T08:12:35;9.17;;;2.27;;
37495;SDS011;23346;52.088;4.746;2023-04-03T08:15:02;5.00;;;2.23;;
37495;SDS011;23346;52.088;4.746;2023-04-03T08:17:28;4.50;;;2.07;;
37495;SDS011;23346;52.088;4.746;2023-04-03T08:19:54;2.10;;;1.07;;
37495;SDS011;23346;52.088;4.746;2023-04-03T08:22:20;2.97;;;1.30;;
37495;SDS011;23346;52.088;4.746;2023-04-03T08:24:46;1.27;;;1.13;;
37495;SDS011;23346;52.088;4.746;2023-04-03T08:27:12;5.90;;;1.70;;
37495;SDS011;23346;52.088;4.746;2023-04-03T08:29:38;2.30;;;1.40;;
37495;SDS011;23346;52.088;4.746;2023-04-03T08:32:04;3.97;;;1.50;;
37495;SDS011;23346;52.088;4.746;2023-04-03T08:34:31;1.93;;;1.13;;
37495;SDS011;23346;52.088;4.746;2023-04-03T08:36:59;3.37;;;1.27;;
37495;SDS011;23346;52.088;4.746;2023-04-03T08:39:25;4.00;;;1.03;;
37495;SDS011;23346;52.088;4.746;2023-04-03T08:41:52;3.43;;;1.33;;
37495;SDS011;23346;52.088;4.746;2023-04-03T08:47:24;5.63;;;1.40;;
37495;SDS011;23346;52.088;4.746;2023-04-03T08:49:53;2.97;;;1.37;;
37495;SDS011;23346;52.088;4.746;2023-04-03T08:54:53;4.80;;;1.20;;
37495;SDS011;23346;52.088;4.746;2023-04-03T08:57:24;1.17;;;0.50;;
37495;SDS011;23346;52.088;4.746;2023-04-03T08:59:52;1.30;;;1.13;;
37495;SDS011;23346;52.088;4.746;2023-04-03T09:02:23;6.10;;;1.37;;
37495;SDS011;23346;52.088;4.746;2023-04-03T09:04:50;1.37;;;0.80;;
37495;SDS011;23346;52.088;4.746;2023-04-03T09:07:18;1.87;;;1.27;;
37495;SDS011;23346;52.088;4.746;2023-04-03T09:09:47;5.50;;;1.30;;
37495;SDS011;23346;52.088;4.746;2023-04-03T09:20:25;1.43;;;0.60;;
37495;SDS011;23346;52.088;4.746;2023-04-03T09:22:54;1.60;;;0.60;;
37495;SDS011;23346;52.088;4.746;2023-04-03T09:25:24;0.77;;;0.30;;
37495;SDS011;23346;52.088;4.746;2023-04-03T09:27:51;0.50;;;0.50;;
37495;SDS011;23346;52.088;4.746;2023-04-03T09:30:19;1.27;;;0.50;;
37495;SDS011;23346;52.088;4.746;2023-04-03T09:32:45;3.13;;;0.80;;
37495;SDS011;23346;52.088;4.746;2023-04-03T09:37:48;3.33;;;0.70;;
37495;SDS011;23346;52.088;4.746;2023-04-03T09:40:31;0.43;;;0.43;;
37495;SDS011;23346;52.088;4.746;2023-04-03T09:43:18;3.30;;;0.60;;
37495;SDS011;23346;52.088;4.746;2023-04-03T09:45:45;3.30;;;0.60;;
37495;SDS011;23346;52.088;4.746;2023-04-03T09:50:38;1.77;;;0.67;;
37495;SDS011;23346;52.088;4.746;2023-04-03T09:53:26;0.70;;;0.50;;
37495;SDS011;23346;52.088;4.746;2023-04-03T09:55:52;0.50;;;0.50;;
37495;SDS011;23346;52.088;4.746;2023-04-03T09:58:28;1.67;;;0.53;;
37495;SDS011;23346;52.088;4.746;2023-04-03T10:00:58;1.27;;;0.50;;
37495;SDS011;23346;52.088;4.746;2023-04-03T10:03:26;1.03;;;0.67;;
37495;SDS011;23346;52.088;4.746;2023-04-03T10:05:53;0.80;;;0.50;;
37495;SDS011;23346;52.088;4.746;2023-04-03T10:08:24;2.10;;;0.60;;
37495;SDS011;23346;52.088;4.746;2023-04-03T10:13:36;0.53;;;0.47;;
37495;SDS011;23346;52.088;4.746;2023-04-03T10:18:30;1.43;;;0.43;;
37495;SDS011;23346;52.088;4.746;2023-04-03T10:20:59;1.47;;;0.50;;
37495;SDS011;23346;52.088;4.746;2023-04-03T10:23:40;0.67;;;0.40;;
37495;SDS011;23346;52.088;4.746;2023-04-03T10:26:17;0.83;;;0.60;;
37495;SDS011;23346;52.088;4.746;2023-04-03T10:34:06;0.83;;;0.40;;
37495;SDS011;23346;52.088;4.746;2023-04-03T10:36:38;0.67;;;0.40;;
37495;SDS011;23346;52.088;4.746;2023-04-03T10:41:49;1.17;;;0.50;;
37495;SDS011;23346;52.088;4.746;2023-04-03T10:44:29;1.23;;;0.55;;
37495;SDS011;23346;52.088;4.746;2023-04-03T10:49:45;0.50;;;0.30;;
37495;SDS011;23346;52.088;4.746;2023-04-03T10:52:17;2.07;;;1.03;;
37495;SDS011;23346;52.088;4.746;2023-04-03T10:55:03;0.60;;;0.47;;
37495;SDS011;23346;52.088;4.746;2023-04-03T10:57:30;1.52;;;0.50;;
37495;SDS011;23346;52.088;4.746;2023-04-03T10:59:57;2.10;;;0.63;;
37495;SDS011;23346;52.088;4.746;2023-04-03T11:02:26;0.50;;;0.37;;
37495;SDS011;23346;52.088;4.746;2023-04-03T11:07:38;0.40;;;0.40;;
37495;SDS011;23346;52.088;4.746;2023-04-03T11:10:13;0.68;;;0.60;;
37495;SDS011;23346;52.088;4.746;2023-04-03T11:12:46;2.20;;;0.60;;
37495;SDS011;23346;52.088;4.746;2023-04-03T11:15:15;1.60;;;0.85;;
37495;SDS011;23346;52.088;4.746;2023-04-03T11:17:43;0.85;;;0.40;;
37495;SDS011;23346;52.088;4.746;2023-04-03T11:22:42;0.70;;;0.40;;
37495;SDS011;23346;52.088;4.746;2023-04-03T11:27:43;0.40;;;0.40;;
37495;SDS011;23346;52.088;4.746;2023-04-03T11:30:22;0.88;;;0.40;;
37495;SDS011;23346;52.088;4.746;2023-04-03T11:35:33;1.90;;;0.50;;
37495;SDS011;23346;52.088;4.746;2023-04-03T11:38:01;0.95;;;0.63;;
37495;SDS011;23346;52.088;4.746;2023-04-03T11:40:28;0.68;;;0.43;;
37495;SDS011;23346;52.088;4.746;2023-04-03T11:47:54;0.65;;;0.55;;
37495;SDS011;23346;52.088;4.746;2023-04-03T12:05:53;0.43;;;0.43;;
37495;SDS011;23346;52.088;4.746;2023-04-03T12:08:24;0.47;;;0.40;;
37495;SDS011;23346;52.088;4.746;2023-04-03T12:16:04;0.33;;;0.33;;
37495;SDS011;23346;52.088;4.746;2023-04-03T12:18:31;1.13;;;0.50;;
37495;SDS011;23346;52.088;4.746;2023-04-03T12:20:58;0.40;;;0.40;;
37495;SDS011;23346;52.088;4.746;2023-04-03T12:23:25;0.70;;;0.40;;
37495;SDS011;23346;52.088;4.746;2023-04-03T12:25:51;0.63;;;0.60;;
37495;SDS011;23346;52.088;4.746;2023-04-03T12:28:17;1.47;;;0.80;;
37495;SDS011;23346;52.088;4.746;2023-04-03T12:30:43;2.07;;;0.63;;
37495;SDS011;23346;52.088;4.746;2023-04-03T12:43:42;1.20;;;0.70;;
37495;SDS011;23346;52.088;4.746;2023-04-03T12:46:15;0.93;;;0.60;;
37495;SDS011;23346;52.088;4.746;2023-04-03T12:48:47;0.70;;;0.40;;
37495;SDS011;23346;52.088;4.746;2023-04-03T12:51:15;1.00;;;0.90;;
37495;SDS011;23346;52.088;4.746;2023-04-03T12:53:43;1.47;;;0.73;;
37495;SDS011;23346;52.088;4.746;2023-04-03T12:58:48;1.67;;;0.70;;
37495;SDS011;23346;52.088;4.746;2023-04-03T13:01:16;0.70;;;0.60;;
37495;SDS011;23346;52.088;4.746;2023-04-03T13:03:44;1.60;;;0.50;;
37495;SDS011;23346;52.088;4.746;2023-04-03T13:06:14;1.07;;;0.60;;
37495;SDS011;23346;52.088;4.746;2023-04-03T13:08:52;0.80;;;0.70;;
37495;SDS011;23346;52.088;4.746;2023-04-03T13:11:19;2.33;;;1.20;;
37495;SDS011;23346;52.088;4.746;2023-04-03T13:13:59;1.07;;;0.70;;
37495;SDS011;23346;52.088;4.746;2023-04-03T13:16:25;0.67;;;0.67;;
37495;SDS011;23346;52.088;4.746;2023-04-03T13:18:52;1.13;;;0.70;;
37495;SDS011;23346;52.088;4.746;2023-04-03T13:21:22;2.63;;;0.70;;
37495;SDS011;23346;52.088;4.746;2023-04-03T13:23:51;1.70;;;0.40;;
37495;SDS011;23346;52.088;4.746;2023-04-03T13:26:18;3.40;;;0.80;;
37495;SDS011;23346;52.088;4.746;2023-04-03T13:28:46;1.03;;;0.73;;
37495;SDS011;23346;52.088;4.746;2023-04-03T13:37:01;1.00;;;0.80;;
37495;SDS011;23346;52.088;4.746;2023-04-03T13:39:22;0.70;;;0.70;;
37495;SDS011;23346;52.088;4.746;2023-04-03T13:41:49;1.00;;;0.70;;
37495;SDS011;23346;52.088;4.746;2023-04-03T13:46:48;1.13;;;0.63;;
37495;SDS011;23346;52.088;4.746;2023-04-03T13:51:59;5.60;;;1.17;;
37495;SDS011;23346;52.088;4.746;2023-04-03T13:54:29;2.50;;;0.80;;
37495;SDS011;23346;52.088;4.746;2023-04-03T13:56:57;1.70;;;1.03;;
37495;SDS011;23346;52.088;4.746;2023-04-03T13:59:24;1.80;;;0.80;;
37495;SDS011;23346;52.088;4.746;2023-04-03T14:04:20;3.47;;;1.00;;
37495;SDS011;23346;52.088;4.746;2023-04-03T14:06:47;0.80;;;0.70;;
37495;SDS011;23346;52.088;4.746;2023-04-03T14:09:13;0.90;;;0.60;;
37495;SDS011;23346;52.088;4.746;2023-04-03T14:11:40;2.13;;;0.90;;
37495;SDS011;23346;52.088;4.746;2023-04-03T14:14:10;0.63;;;0.60;;
37495;SDS011;23346;52.088;4.746;2023-04-03T14:16:38;1.03;;;0.60;;
37495;SDS011;23346;52.088;4.746;2023-04-03T14:19:05;0.60;;;0.50;;
37495;SDS011;23346;52.088;4.746;2023-04-03T14:21:31;1.58;;;0.75;;
37495;SDS011;23346;52.088;4.746;2023-04-03T14:23:57;0.63;;;0.60;;
37495;SDS011;23346;52.088;4.746;2023-04-03T14:26:23;0.98;;;0.60;;
37495;SDS011;23346;52.088;4.746;2023-04-03T14:28:52;1.40;;;0.50;;
37495;SDS011;23346;52.088;4.746;2023-04-03T14:31:18;1.70;;;0.60;;
37495;SDS011;23346;52.088;4.746;2023-04-03T14:33:44;1.33;;;0.60;;
37495;SDS011;23346;52.088;4.746;2023-04-03T14:36:20;0.98;;;0.55;;
37495;SDS011;23346;52.088;4.746;2023-04-03T14:38:47;2.75;;;0.68;;
37495;SDS011;23346;52.088;4.746;2023-04-03T14:41:14;2.25;;;0.50;;
37495;SDS011;23346;52.088;4.746;2023-04-03T14:43:42;1.25;;;0.60;;
37495;SDS011;23346;52.088;4.746;2023-04-03T14:46:19;2.05;;;0.50;;
37495;SDS011;23346;52.088;4.746;2023-04-03T14:48:47;1.35;;;0.52;;
37495;SDS011;23346;52.088;4.746;2023-04-03T14:51:13;2.10;;;0.60;;
37495;SDS011;23346;52.088;4.746;2023-04-03T14:53:40;2.05;;;0.60;;
37495;SDS011;23346;52.088;4.746;2023-04-03T14:56:11;1.10;;;0.50;;
37495;SDS011;23346;52.088;4.746;2023-04-03T14:58:37;2.80;;;0.80;;
37495;SDS011;23346;52.088;4.746;2023-04-03T15:01:03;1.52;;;0.70;;
37495;SDS011;23346;52.088;4.746;2023-04-03T15:03:29;1.05;;;0.60;;
37495;SDS011;23346;52.088;4.746;2023-04-03T15:05:55;0.57;;;0.55;;
37495;SDS011;23346;52.088;4.746;2023-04-03T15:08:26;1.45;;;0.95;;
37495;SDS011;23346;52.088;4.746;2023-04-03T15:10:54;0.73;;;0.50;;
37495;SDS011;23346;52.088;4.746;2023-04-03T15:13:23;3.67;;;0.73;;
37495;SDS011;23346;52.088;4.746;2023-04-03T15:15:50;0.50;;;0.40;;
37495;SDS011;23346;52.088;4.746;2023-04-03T15:18:18;1.50;;;0.70;;
37495;SDS011;23346;52.088;4.746;2023-04-03T15:20:44;1.80;;;0.70;;
37495;SDS011;23346;52.088;4.746;2023-04-03T15:23:12;1.83;;;0.70;;
37495;SDS011;23346;52.088;4.746;2023-04-03T15:25:38;0.82;;;0.63;;
37495;SDS011;23346;52.088;4.746;2023-04-03T15:28:04;1.17;;;0.77;;
37495;SDS011;23346;52.088;4.746;2023-04-03T15:30:30;4.28;;;0.85;;
37495;SDS011;23346;52.088;4.746;2023-04-03T15:32:56;2.50;;;0.80;;
37495;SDS011;23346;52.088;4.746;2023-04-03T15:35:22;2.53;;;0.60;;
37495;SDS011;23346;52.088;4.746;2023-04-03T15:37:48;2.88;;;0.57;;
37495;SDS011;23346;52.088;4.746;2023-04-03T15:40:16;2.97;;;0.73;;
37495;SDS011;23346;52.088;4.746;2023-04-03T15:42:42;2.55;;;0.60;;
37495;SDS011;23346;52.088;4.746;2023-04-03T15:45:08;1.23;;;0.70;;
37495;SDS011;23346;52.088;4.746;2023-04-03T15:47:34;1.38;;;0.50;;
37495;SDS011;23346;52.088;4.746;2023-04-03T15:50:00;2.42;;;0.95;;
37495;SDS011;23346;52.088;4.746;2023-04-03T15:52:26;1.65;;;0.50;;
37495;SDS011;23346;52.088;4.746;2023-04-03T15:54:52;1.48;;;0.90;;
37495;SDS011;23346;52.088;4.746;2023-04-03T15:57:18;3.60;;;1.20;;
37495;SDS011;23346;52.088;4.746;2023-04-03T15:59:44;2.38;;;0.90;;
37495;SDS011;23346;52.088;4.746;2023-04-03T16:02:10;1.60;;;0.88;;
37495;SDS011;23346;52.088;4.746;2023-04-03T16:04:38;1.08;;;0.57;;
37495;SDS011;23346;52.088;4.746;2023-04-03T16:07:04;0.70;;;0.50;;
37495;SDS011;23346;52.088;4.746;2023-04-03T16:09:31;2.50;;;0.90;;
37495;SDS011;23346;52.088;4.746;2023-04-03T16:11:58;3.40;;;0.70;;
37495;SDS011;23346;52.088;4.746;2023-04-03T16:14:25;1.27;;;0.57;;
37495;SDS011;23346;52.088;4.746;2023-04-03T16:16:52;1.40;;;0.73;;
37495;SDS011;23346;52.088;4.746;2023-04-03T16:19:19;2.33;;;1.47;;
37495;SDS011;23346;52.088;4.746;2023-04-03T16:21:45;5.17;;;1.10;;
37495;SDS011;23346;52.088;4.746;2023-04-03T16:24:11;1.73;;;1.20;;
37495;SDS011;23346;52.088;4.746;2023-04-03T16:26:37;5.40;;;1.00;;
37495;SDS011;23346;52.088;4.746;2023-04-03T16:29:03;0.80;;;0.70;;
37495;SDS011;23346;52.088;4.746;2023-04-03T16:31:29;1.70;;;1.20;;